createdAt,value
2018-04-24T00:01:56.878Z,12.00
2018-04-24T00:04:23.141Z,12.00
2018-04-24T00:06:49.425Z,11.90
2018-04-24T00:09:15.745Z,11.80
2018-04-24T00:11:42.075Z,11.90
2018-04-24T00:14:08.433Z,11.80
2018-04-24T00:16:35.465Z,11.70
2018-04-24T00:19:02.477Z,11.70
2018-04-24T00:21:28.773Z,11.70
2018-04-24T00:23:55.038Z,11.70
2018-04-24T00:26:21.303Z,11.70
2018-04-24T00:28:48.567Z,11.70
2018-04-24T00:31:15.374Z,11.70
2018-04-24T00:33:41.632Z,11.80
2018-04-24T00:36:07.913Z,11.80
2018-04-24T00:38:34.265Z,11.70
2018-04-24T00:41:00.582Z,11.80
2018-04-24T00:43:27.549Z,11.70
2018-04-24T00:45:53.903Z,11.70
2018-04-24T00:48:20.206Z,11.70
2018-04-24T00:50:46.458Z,11.80
2018-04-24T00:53:25.245Z,11.70
2018-04-24T00:55:51.499Z,11.60
2018-04-24T00:58:18.262Z,11.60
2018-04-24T01:00:44.692Z,11.50
2018-04-24T01:03:11.864Z,11.40
2018-04-24T01:05:38.161Z,11.50
2018-04-24T01:08:04.442Z,11.50
2018-04-24T01:10:31.440Z,11.40
2018-04-24T01:12:57.761Z,11.30
2018-04-24T01:15:24.825Z,11.40
2018-04-24T01:17:51.121Z,11.40
2018-04-24T01:20:17.374Z,11.30
2018-04-24T01:22:43.634Z,11.30
2018-04-24T01:25:09.929Z,11.40
2018-04-24T01:27:36.188Z,11.20
2018-04-24T01:30:03.367Z,11.30
2018-04-24T01:32:29.818Z,11.20
2018-04-24T01:34:56.807Z,11.10
2018-04-24T01:37:23.113Z,11.10
2018-04-24T01:39:50.099Z,11.20
2018-04-24T01:42:16.350Z,11.20
2018-04-24T01:44:42.630Z,11.20
2018-04-24T01:47:08.929Z,11.10
2018-04-24T01:49:35.176Z,11.00
2018-04-24T01:52:02.473Z,10.90
2018-04-24T01:54:28.806Z,10.90
2018-04-24T01:56:55.080Z,11.00
2018-04-24T01:59:21.354Z,10.90
2018-04-24T02:01:48.373Z,10.90
2018-04-24T02:04:14.649Z,10.90
2018-04-24T02:06:40.935Z,11.00
2018-04-24T02:09:07.971Z,11.10
2018-04-24T02:11:34.796Z,11.10
2018-04-24T02:14:01.126Z,11.10
2018-04-24T02:16:27.429Z,11.10
2018-04-24T02:18:53.718Z,11.10
2018-04-24T02:21:20.955Z,11.10
2018-04-24T02:23:47.217Z,11.10
2018-04-24T02:26:13.457Z,11.10
2018-04-24T02:28:40.614Z,11.10
2018-04-24T02:31:06.873Z,11.00
2018-04-24T02:33:33.172Z,11.00
2018-04-24T02:35:59.436Z,11.10
2018-04-24T02:38:25.765Z,11.00
2018-04-24T02:40:52.023Z,11.10
2018-04-24T02:43:18.305Z,10.90
2018-04-24T02:45:44.565Z,11.00
2018-04-24T02:48:10.842Z,10.90
2018-04-24T02:50:37.129Z,10.90
2018-04-24T02:53:03.459Z,10.70
2018-04-24T02:55:29.698Z,10.70
2018-04-24T02:57:55.969Z,10.70
2018-04-24T03:00:22.229Z,10.70
2018-04-24T03:02:48.515Z,10.70
2018-04-24T03:05:14.754Z,10.60
2018-04-24T03:07:41.009Z,10.50
2018-04-24T03:10:07.327Z,10.50
2018-04-24T03:12:33.582Z,10.50
2018-04-24T03:14:59.893Z,10.40
2018-04-24T03:17:26.150Z,10.40
2018-04-24T03:19:52.889Z,10.40
2018-04-24T03:22:19.158Z,10.40
2018-04-24T03:24:45.766Z,10.30
2018-04-24T03:27:12.012Z,10.30
2018-04-24T03:29:38.310Z,10.30
2018-04-24T03:32:04.582Z,10.30
2018-04-24T03:34:30.897Z,10.30
2018-04-24T03:36:59.741Z,10.20
2018-04-24T03:39:26.102Z,10.20
2018-04-24T03:41:52.403Z,10.20
2018-04-24T03:44:20.908Z,10.10
2018-04-24T03:46:47.354Z,10.10
2018-04-24T03:49:13.635Z,10.10
2018-04-24T03:51:39.953Z,10.00
2018-04-24T03:54:06.189Z,10.00
2018-04-24T03:56:32.469Z,10.10
2018-04-24T03:58:59.453Z,10.10
2018-04-24T04:01:26.542Z,10.10
2018-04-24T04:03:52.817Z,10.10
2018-04-24T04:06:19.101Z,10.10
2018-04-24T04:08:45.352Z,10.20
2018-04-24T04:11:11.652Z,10.10
2018-04-24T04:13:37.898Z,10.20
2018-04-24T04:16:04.193Z,10.10
2018-04-24T04:18:42.605Z,10.10
2018-04-24T04:21:21.326Z,10.10
2018-04-24T04:23:59.804Z,10.20
2018-04-24T04:26:26.078Z,10.10
2018-04-24T04:28:52.813Z,10.20
2018-04-24T04:31:19.121Z,10.20
2018-04-24T04:33:46.126Z,10.20
2018-04-24T04:36:12.393Z,10.20
2018-04-24T04:38:38.645Z,10.20
2018-04-24T04:41:05.662Z,10.30
2018-04-24T04:43:32.013Z,10.20
2018-04-24T04:45:59.025Z,10.40
2018-04-24T04:48:25.334Z,10.40
2018-04-24T04:50:51.606Z,10.40
2018-04-24T04:53:17.951Z,10.40
2018-04-24T04:55:44.946Z,10.50
2018-04-24T04:58:11.228Z,10.40
2018-04-24T05:00:37.474Z,10.50
2018-04-24T05:03:03.731Z,10.60
2018-04-24T05:05:30.417Z,10.60
2018-04-24T05:07:56.689Z,10.70
2018-04-24T05:10:22.929Z,10.80
2018-04-24T05:12:49.206Z,10.80
2018-04-24T05:15:15.461Z,10.90
2018-04-24T05:17:42.470Z,11.00
2018-04-24T05:20:08.847Z,11.00
2018-04-24T05:22:35.059Z,11.00
2018-04-24T05:25:01.413Z,10.90
2018-04-24T05:27:27.692Z,11.00
2018-04-24T05:29:53.961Z,11.00
2018-04-24T05:32:20.201Z,11.20
2018-04-24T05:34:46.542Z,11.20
2018-04-24T05:37:12.806Z,11.20
2018-04-24T05:39:39.161Z,11.20
2018-04-24T05:42:05.406Z,11.30
2018-04-24T05:44:31.756Z,11.40
2018-04-24T05:46:58.018Z,11.40
2018-04-24T05:49:24.276Z,11.40
2018-04-24T05:51:50.505Z,11.50
2018-04-24T05:54:16.787Z,11.50
2018-04-24T05:56:43.067Z,11.60
2018-04-24T05:59:09.344Z,11.70
2018-04-24T06:01:35.638Z,11.70
2018-04-24T06:04:01.909Z,11.70
2018-04-24T06:06:28.385Z,12.00
2018-04-24T06:08:54.637Z,12.00
2018-04-24T06:11:20.977Z,12.10
2018-04-24T06:13:47.225Z,12.30
2018-04-24T06:16:13.606Z,12.30
2018-04-24T06:18:39.841Z,12.60
2018-04-24T06:21:06.097Z,12.80
2018-04-24T06:23:32.339Z,12.80
2018-04-24T06:25:59.629Z,12.90
2018-04-24T06:28:26.694Z,12.90
2018-04-24T06:30:52.997Z,12.80
2018-04-24T06:33:19.230Z,12.90
2018-04-24T06:35:45.498Z,12.90
2018-04-24T06:38:11.746Z,13.10
2018-04-24T06:40:38.023Z,13.00
2018-04-24T06:43:04.313Z,13.20
2018-04-24T06:45:32.458Z,13.20
2018-04-24T06:47:59.475Z,13.40
2018-04-24T06:50:26.014Z,13.30
2018-04-24T06:52:52.260Z,13.30
2018-04-24T06:55:18.773Z,13.30
2018-04-24T06:57:45.021Z,13.30
2018-04-24T07:00:11.861Z,13.40
2018-04-24T07:02:38.109Z,13.50
2018-04-24T07:05:04.395Z,13.60
2018-04-24T07:07:33.464Z,13.60
2018-04-24T07:09:59.928Z,13.70
2018-04-24T07:12:26.186Z,13.60
2018-04-24T07:14:52.519Z,13.70
2018-04-24T07:17:19.490Z,13.80
2018-04-24T07:19:45.720Z,13.70
2018-04-24T07:22:12.042Z,13.80
2018-04-24T07:24:38.898Z,13.90
2018-04-24T07:27:05.230Z,14.10
2018-04-24T07:29:31.429Z,14.20
2018-04-24T07:31:57.701Z,14.10
2018-04-24T07:34:23.933Z,14.30
2018-04-24T07:36:50.209Z,14.50
2018-04-24T07:39:16.464Z,14.60
2018-04-24T07:41:42.742Z,14.70
2018-04-24T07:44:09.066Z,14.80
2018-04-24T07:46:35.358Z,14.70
2018-04-24T07:49:02.391Z,14.80
2018-04-24T07:51:28.669Z,14.90
2018-04-24T07:53:54.911Z,14.60
2018-04-24T07:58:48.878Z,15.20
2018-04-24T08:01:16.114Z,15.30
2018-04-24T08:03:42.669Z,15.40
2018-04-24T08:06:08.947Z,15.20
2018-04-24T08:08:35.329Z,15.10
2018-04-24T08:11:01.620Z,14.90
2018-04-24T08:13:28.006Z,15.00
2018-04-24T08:15:54.286Z,14.80
2018-04-24T08:18:20.605Z,14.90
2018-04-24T08:20:46.859Z,15.10
2018-04-24T08:23:13.121Z,15.20
2018-04-24T08:25:39.377Z,15.40
2018-04-24T08:28:05.653Z,15.20
2018-04-24T08:30:31.990Z,15.40
2018-04-24T08:32:58.276Z,15.50
2018-04-24T08:35:24.530Z,15.30
2018-04-24T08:37:50.806Z,15.10
2018-04-24T08:40:17.065Z,15.00
2018-04-24T08:42:43.353Z,15.10
2018-04-24T08:45:10.374Z,15.20
2018-04-24T08:47:37.685Z,15.10
2018-04-24T08:50:04.108Z,15.20
2018-04-24T08:52:30.408Z,15.10
2018-04-24T08:54:56.716Z,15.20
2018-04-24T08:57:23.038Z,15.20
2018-04-24T08:59:49.289Z,15.20
2018-04-24T09:02:15.553Z,15.30
2018-04-24T09:04:42.785Z,15.50
2018-04-24T09:07:10.017Z,15.60
2018-04-24T09:09:36.270Z,15.80
2018-04-24T09:12:02.522Z,15.80
2018-04-24T09:14:28.822Z,15.60
2018-04-24T09:16:55.110Z,15.60
2018-04-24T09:19:22.125Z,15.80
2018-04-24T09:21:48.422Z,15.80
2018-04-24T09:24:14.690Z,15.80
2018-04-24T09:26:40.943Z,15.80
2018-04-24T09:29:07.225Z,15.80
2018-04-24T09:31:39.638Z,15.60
2018-04-24T09:34:06.097Z,15.60
2018-04-24T09:36:35.331Z,15.70
2018-04-24T09:39:02.626Z,15.70
2018-04-24T09:41:28.875Z,15.60
2018-04-24T09:43:55.154Z,15.40
2018-04-24T09:46:21.429Z,15.50
2018-04-24T09:48:47.711Z,15.60
2018-04-24T09:51:14.033Z,15.60
2018-04-24T09:53:40.313Z,15.40
2018-04-24T09:56:21.697Z,15.70
2018-04-24T09:58:47.986Z,15.40
2018-04-24T10:01:14.969Z,15.50
2018-04-24T10:03:41.233Z,15.50
2018-04-24T10:06:07.535Z,15.70
2018-04-24T10:08:33.798Z,15.60
2018-04-24T10:11:00.866Z,15.70
2018-04-24T10:13:27.218Z,15.70
2018-04-24T10:15:54.198Z,16.10
2018-04-24T10:18:20.462Z,16.10
2018-04-24T10:20:47.582Z,16.40
2018-04-24T10:23:13.850Z,16.50
2018-04-24T10:25:40.882Z,16.20
2018-04-24T10:28:07.413Z,16.20
2018-04-24T10:30:33.670Z,16.30
2018-04-24T10:32:59.964Z,16.60
2018-04-24T10:35:26.268Z,16.80
2018-04-24T10:37:52.673Z,16.80
2018-04-24T10:40:19.001Z,16.80
2018-04-24T10:45:38.501Z,16.80
2018-04-24T10:48:04.827Z,16.50
2018-04-24T10:50:30.989Z,16.50
2018-04-24T10:52:57.226Z,16.50
2018-04-24T10:55:23.483Z,16.50
2018-04-24T10:57:49.758Z,16.30
2018-04-24T11:00:16.094Z,16.20
2018-04-24T11:02:42.446Z,16.70
2018-04-24T11:05:08.940Z,17.00
2018-04-24T11:07:35.221Z,17.40
2018-04-24T11:10:01.486Z,17.90
2018-04-24T11:12:27.937Z,18.40
2018-04-24T11:14:54.193Z,18.50
2018-04-24T11:17:21.484Z,18.50
2018-04-24T11:19:47.789Z,18.70
2018-04-24T11:22:14.053Z,19.00
2018-04-24T11:24:40.307Z,18.90
2018-04-24T11:27:06.529Z,18.70
2018-04-24T11:29:32.801Z,18.70
2018-04-24T11:31:59.046Z,18.80
2018-04-24T11:34:28.359Z,19.10
2018-04-24T11:36:54.649Z,19.40
2018-04-24T11:39:20.905Z,19.80
2018-04-24T11:41:47.181Z,19.60
2018-04-24T11:44:13.438Z,19.60
2018-04-24T11:46:39.681Z,20.00
2018-04-24T11:49:05.947Z,20.00
2018-04-24T11:51:32.282Z,20.30
2018-04-24T11:53:58.510Z,20.00
2018-04-24T11:56:24.876Z,20.10
2018-04-24T11:58:51.894Z,21.20
2018-04-24T12:01:18.167Z,21.20
2018-04-24T12:03:44.438Z,21.50
2018-04-24T12:06:10.677Z,22.00
2018-04-24T12:08:38.829Z,21.80
2018-04-24T12:11:05.109Z,21.30
2018-04-24T12:13:31.394Z,21.30
2018-04-24T12:15:57.650Z,21.20
2018-04-24T12:18:24.891Z,21.10
2018-04-24T12:20:51.758Z,21.00
2018-04-24T12:23:18.010Z,21.00
2018-04-24T12:25:46.297Z,20.90
2018-04-24T12:28:12.813Z,20.40
2018-04-24T12:30:39.091Z,20.60
2018-04-24T12:33:05.312Z,21.00
2018-04-24T12:35:31.613Z,20.90
2018-04-24T12:37:57.858Z,20.70
2018-04-24T12:40:25.978Z,20.70
2018-04-24T12:42:52.224Z,20.70
2018-04-24T12:45:18.508Z,20.80
2018-04-24T12:47:44.783Z,21.30
2018-04-24T12:50:11.821Z,22.20
2018-04-24T12:52:38.070Z,22.20
2018-04-24T12:55:04.374Z,22.40
2018-04-24T12:57:30.622Z,22.60
2018-04-24T12:59:56.858Z,22.90
2018-04-24T13:02:23.129Z,22.90
2018-04-24T13:04:49.421Z,22.70
2018-04-24T13:07:15.665Z,22.40
2018-04-24T13:09:42.790Z,22.00
2018-04-24T13:12:09.450Z,21.80
2018-04-24T13:14:35.707Z,21.70
2018-04-24T13:17:02.042Z,21.10
2018-04-24T13:19:28.297Z,21.00
2018-04-24T13:21:54.645Z,20.80
2018-04-24T13:24:20.869Z,20.70
2018-04-24T13:26:47.149Z,20.80
2018-04-24T13:29:13.415Z,21.10
2018-04-24T13:31:39.668Z,21.10
2018-04-24T13:34:05.961Z,20.60
2018-04-24T13:36:32.265Z,20.10
2018-04-24T13:38:58.522Z,20.50
2018-04-24T13:41:24.783Z,20.60
2018-04-24T13:43:51.046Z,20.50
2018-04-24T13:46:17.311Z,20.30
2018-04-24T13:48:43.569Z,20.40
2018-04-24T13:51:09.833Z,20.30
2018-04-24T13:53:36.057Z,19.90
2018-04-24T13:56:02.314Z,19.80
2018-04-24T13:58:28.621Z,19.60
2018-04-24T14:00:55.919Z,19.40
2018-04-24T14:03:22.121Z,19.30
2018-04-24T14:05:49.725Z,19.00
2018-04-24T14:08:15.979Z,18.90
2018-04-24T14:10:42.213Z,19.00
2018-04-24T14:13:08.473Z,19.00
2018-04-24T14:15:34.706Z,19.20
2018-04-24T14:18:00.973Z,19.20
2018-04-24T14:20:27.310Z,19.00
2018-04-24T14:22:53.577Z,19.20
2018-04-24T14:25:19.793Z,19.50
2018-04-24T14:27:46.047Z,19.60
2018-04-24T14:30:12.278Z,20.00
2018-04-24T14:32:38.509Z,20.30
2018-04-24T14:35:04.746Z,20.70
2018-04-24T14:37:31.073Z,21.00
2018-04-24T14:39:57.323Z,21.30
2018-04-24T14:42:23.573Z,21.20
2018-04-24T14:44:49.809Z,20.90
2018-04-24T14:47:16.081Z,20.90
2018-04-24T14:49:42.315Z,20.30
2018-04-24T14:52:08.572Z,19.80
2018-04-24T14:54:34.803Z,19.70
2018-04-24T14:57:01.331Z,19.50
2018-04-24T14:59:27.557Z,19.60
2018-04-24T15:01:54.550Z,19.90
2018-04-24T15:04:20.773Z,19.90
2018-04-24T15:06:49.994Z,19.90
2018-04-24T15:09:16.233Z,19.90
2018-04-24T15:11:42.992Z,20.00
2018-04-24T15:14:09.491Z,20.30
2018-04-24T15:16:36.529Z,21.50
2018-04-24T15:19:03.532Z,21.40
2018-04-24T15:21:29.817Z,22.20
2018-04-24T15:23:56.148Z,22.50
2018-04-24T15:26:22.386Z,22.30
2018-04-24T15:28:48.633Z,21.90
2018-04-24T15:31:14.941Z,21.60
2018-04-24T15:33:41.166Z,21.50
2018-04-24T15:36:07.513Z,21.50
2018-04-24T15:38:33.749Z,22.20
2018-04-24T15:41:01.425Z,23.70
2018-04-24T15:43:27.661Z,24.50
2018-04-24T15:45:53.885Z,24.50
2018-04-24T15:48:20.163Z,24.10
2018-04-24T15:50:46.411Z,24.50
2018-04-24T15:53:12.666Z,25.00
2018-04-24T15:55:38.921Z,25.50
2018-04-24T15:58:05.159Z,26.50
2018-04-24T16:00:31.486Z,26.60
2018-04-24T16:02:57.793Z,27.50
2018-04-24T16:05:24.012Z,27.90
2018-04-24T16:07:50.241Z,27.80
2018-04-24T16:10:16.499Z,26.60
2018-04-24T16:12:42.829Z,26.10
2018-04-24T16:15:09.101Z,25.60
2018-04-24T16:17:36.077Z,25.60
2018-04-24T16:20:02.373Z,25.60
2018-04-24T16:22:28.597Z,25.60
2018-04-24T16:24:54.897Z,25.40
2018-04-24T16:27:21.218Z,25.40
2018-04-24T16:29:47.463Z,24.00
2018-04-24T16:32:13.722Z,23.60
2018-04-24T16:34:39.972Z,23.40
2018-04-24T16:37:06.446Z,23.20
2018-04-24T16:39:32.697Z,22.90
2018-04-24T16:41:59.152Z,22.70
2018-04-24T16:44:25.421Z,22.60
2018-04-24T16:46:52.030Z,23.20
2018-04-24T16:49:18.270Z,23.40
2018-04-24T16:51:44.521Z,22.90
2018-04-24T16:54:10.777Z,22.30
2018-04-24T16:56:37.021Z,22.10
2018-04-24T16:59:03.278Z,21.50
2018-04-24T17:01:29.669Z,21.10
2018-04-24T17:03:55.888Z,20.70
2018-04-24T17:06:22.332Z,21.30
2018-04-24T17:08:48.546Z,21.60
2018-04-24T17:11:15.244Z,21.80
2018-04-24T17:13:42.215Z,21.50
2018-04-24T17:16:08.465Z,21.40
2018-04-24T17:18:34.685Z,21.20
2018-04-24T17:21:00.941Z,20.90
2018-04-24T17:23:27.181Z,20.20
2018-04-24T17:25:53.940Z,19.80
2018-04-24T17:28:20.195Z,19.90
2018-04-24T17:30:46.451Z,20.50
2018-04-24T17:33:12.709Z,20.40
2018-04-24T17:35:39.606Z,20.50
2018-04-24T17:38:05.906Z,20.40
2018-04-24T17:40:32.141Z,20.30
2018-04-24T17:42:58.394Z,20.00
2018-04-24T17:45:25.369Z,19.70
2018-04-24T17:47:51.617Z,19.60
2018-04-24T17:50:17.894Z,19.40
2018-04-24T17:52:44.147Z,19.20
2018-04-24T17:55:11.098Z,18.60
2018-04-24T17:57:37.338Z,18.60
2018-04-24T18:00:04.355Z,18.40
2018-04-24T18:02:30.897Z,18.40
2018-04-24T18:04:57.878Z,18.10
2018-04-24T18:07:25.057Z,18.10
2018-04-24T18:09:51.293Z,17.90
2018-04-24T18:12:17.541Z,17.90
2018-04-24T18:14:43.805Z,17.80
2018-04-24T18:17:10.045Z,17.80
2018-04-24T18:19:36.445Z,17.70
2018-04-24T18:22:02.714Z,17.60
2018-04-24T18:24:29.786Z,17.30
2018-04-24T18:26:56.008Z,17.30
2018-04-24T18:29:22.257Z,17.30
2018-04-24T18:31:48.501Z,17.20
2018-04-24T18:34:14.745Z,17.20
2018-04-24T18:36:40.978Z,17.20
2018-04-24T18:39:07.222Z,17.00
2018-04-24T18:41:33.458Z,17.10
2018-04-24T18:43:59.737Z,17.10
2018-04-24T18:46:25.966Z,17.00
2018-04-24T18:48:52.198Z,16.90
2018-04-24T18:51:18.518Z,16.80
2018-04-24T18:53:44.757Z,16.80
2018-04-24T18:56:10.977Z,16.70
2018-04-24T18:58:37.224Z,16.70
2018-04-24T19:01:03.469Z,16.70
2018-04-24T19:03:29.731Z,16.60
2018-04-24T19:05:55.989Z,16.60
2018-04-24T19:08:22.977Z,16.60
2018-04-24T19:10:49.210Z,16.60
2018-04-24T19:13:15.536Z,16.60
2018-04-24T19:15:41.765Z,16.60
2018-04-24T19:18:08.017Z,16.50
2018-04-24T19:20:34.327Z,16.40
2018-04-24T19:23:01.205Z,16.40
2018-04-24T19:25:34.522Z,16.40
2018-04-24T19:28:01.117Z,16.40
2018-04-24T19:30:27.427Z,16.30
2018-04-24T19:32:53.788Z,16.30
2018-04-24T19:35:20.065Z,16.30
2018-04-24T19:37:47.178Z,16.30
2018-04-24T19:40:19.447Z,16.30
2018-04-24T19:42:46.113Z,16.30
2018-04-24T19:45:12.958Z,16.30
2018-04-24T19:47:39.229Z,16.30
2018-04-24T19:50:12.086Z,16.30
2018-04-24T19:52:38.356Z,16.30
2018-04-24T19:55:10.639Z,16.40
2018-04-24T19:57:36.926Z,16.40
2018-04-24T20:00:03.219Z,16.40
2018-04-24T20:02:29.492Z,16.40
2018-04-24T20:04:58.062Z,16.40
2018-04-24T20:07:25.381Z,16.50
2018-04-24T20:09:51.635Z,16.50
2018-04-24T20:12:18.705Z,16.60
2018-04-24T20:14:44.938Z,16.60
2018-04-24T20:17:11.992Z,16.50
2018-04-24T20:19:38.279Z,16.40
2018-04-24T20:22:04.552Z,16.40
2018-04-24T20:24:30.789Z,16.40
2018-04-24T20:26:57.030Z,16.30
2018-04-24T20:29:23.589Z,16.30
2018-04-24T20:31:49.909Z,16.30
2018-04-24T20:34:16.141Z,16.20
2018-04-24T20:36:42.757Z,16.20
2018-04-24T20:39:09.717Z,16.20
2018-04-24T20:41:36.729Z,16.10
2018-04-24T20:44:03.417Z,16.10
2018-04-24T20:46:29.675Z,16.20
2018-04-24T20:48:55.918Z,16.20
2018-04-24T20:51:22.483Z,16.30
2018-04-24T20:53:49.462Z,16.20
2018-04-24T20:56:15.725Z,16.20
2018-04-24T20:58:41.978Z,16.20
2018-04-24T21:01:08.239Z,16.20
2018-04-24T21:03:35.067Z,16.10
2018-04-24T21:06:01.296Z,16.10
2018-04-24T21:08:27.557Z,16.10
2018-04-24T21:10:54.053Z,16.10
2018-04-24T21:13:20.305Z,16.00
2018-04-24T21:15:46.581Z,16.00
2018-04-24T21:18:12.834Z,16.00
2018-04-24T21:20:39.092Z,16.00
2018-04-24T21:23:05.438Z,16.00
2018-04-24T21:25:31.696Z,15.90
2018-04-24T21:27:57.969Z,15.80
2018-04-24T21:30:24.210Z,15.80
2018-04-24T21:32:50.510Z,15.80
2018-04-24T21:35:16.867Z,15.70
2018-04-24T21:37:43.122Z,15.70
2018-04-24T21:40:09.374Z,15.70
2018-04-24T21:42:35.740Z,15.60
2018-04-24T21:45:02.090Z,15.70
2018-04-24T21:47:29.174Z,15.70
2018-04-24T21:49:55.419Z,15.60
2018-04-24T21:52:21.689Z,15.60
2018-04-24T21:54:47.928Z,15.60
2018-04-24T21:57:14.185Z,15.50
2018-04-24T21:59:40.439Z,15.40
2018-04-24T22:02:06.701Z,15.30
2018-04-24T22:04:32.926Z,15.30
2018-04-24T22:06:59.171Z,15.20
2018-04-24T22:09:26.333Z,15.20
2018-04-24T22:11:52.559Z,15.20
2018-04-24T22:14:19.078Z,15.00
2018-04-24T22:16:45.305Z,15.00
2018-04-24T22:19:11.631Z,15.00
2018-04-24T22:21:38.073Z,14.90
2018-04-24T22:24:04.321Z,14.90
2018-04-24T22:26:30.646Z,14.80
2018-04-24T22:28:56.909Z,14.80
2018-04-24T22:34:07.822Z,14.80
2018-04-24T22:36:34.369Z,14.70
2018-04-24T22:39:00.963Z,14.70
2018-04-24T22:41:27.207Z,14.60
2018-04-24T22:43:53.465Z,14.60
2018-04-24T22:46:19.689Z,14.60
2018-04-24T22:48:46.753Z,14.50
2018-04-24T22:51:12.970Z,14.50
2018-04-24T22:53:39.577Z,14.50
2018-04-24T22:56:05.853Z,14.50
2018-04-24T22:58:32.106Z,14.60
2018-04-24T23:04:27.479Z,14.50
2018-04-24T23:06:53.745Z,14.50
2018-04-24T23:09:20.746Z,14.50
2018-04-24T23:11:59.058Z,14.50
2018-04-24T23:14:37.420Z,14.50
2018-04-24T23:17:16.421Z,14.40
2018-04-24T23:19:54.973Z,14.30
2018-04-24T23:22:29.737Z,14.20
2018-04-24T23:24:55.986Z,14.10
2018-04-24T23:27:22.237Z,14.10
2018-04-24T23:29:48.817Z,14.00
2018-04-24T23:32:15.942Z,13.90
2018-04-24T23:34:42.207Z,13.90
2018-04-24T23:37:10.214Z,13.90
2018-04-24T23:39:36.478Z,13.90
2018-04-24T23:42:02.717Z,13.90
2018-04-24T23:44:28.989Z,13.80
2018-04-24T23:46:56.982Z,13.70
2018-04-24T23:49:23.233Z,13.80
2018-04-24T23:51:49.457Z,13.80
2018-04-24T23:54:15.796Z,13.80
2018-04-24T23:56:43.953Z,13.90
2018-04-24T23:59:10.197Z,13.80
